Time;durP1;ratioP1;P1;durP2;ratioP2;P2;SDS_P1;SDS_P2;PMS_P1;PMS_P2;Temp;Humidity;BMP_temperature;BMP_pressure;BME280_temperature;BME280_humidity;BME280_pressure;Samples;Min_cycle;Max_cycle;Signal;HPM_P1;HPM_P2
2022/03/29 00:01:57;;;;;;;82.25;44.53;;;11.90;99.90;;;;;;5051116;28;20048;-56
2022/03/29 00:04:23;;;;;;;82.53;43.35;;;11.90;99.90;;;;;;5051620;28;20024;-55
2022/03/29 00:06:49;;;;;;;86.18;44.42;;;11.70;99.90;;;;;;5051840;28;20489;-56
2022/03/29 00:09:15;;;;;;;84.25;44.95;;;11.60;99.90;;;;;;5052748;28;20032;-56
2022/03/29 00:11:41;;;;;;;84.60;43.80;;;11.50;99.90;;;;;;5051305;28;20033;-56
2022/03/29 00:14:07;;;;;;;79.03;43.05;;;11.40;99.90;;;;;;5051735;28;20021;-56
2022/03/29 00:16:33;;;;;;;82.47;43.15;;;11.40;99.90;;;;;;5052211;28;20064;-56
2022/03/29 00:18:59;;;;;;;88.15;44.55;;;11.30;99.90;;;;;;5051658;28;20029;-55
2022/03/29 00:21:25;;;;;;;80.07;43.50;;;11.30;99.90;;;;;;5051472;28;20029;-56
2022/03/29 00:23:51;;;;;;;84.78;44.83;;;11.30;99.90;;;;;;5050992;28;20020;-56
2022/03/29 00:26:17;;;;;;;88.82;46.15;;;11.30;99.90;;;;;;5051092;28;20033;-56
2022/03/29 00:28:43;;;;;;;77.18;43.15;;;11.30;99.90;;;;;;5051894;28;20033;-56
2022/03/29 00:31:10;;;;;;;79.85;43.35;;;11.30;99.90;;;;;;5051513;28;20556;-56
2022/03/29 00:33:36;;;;;;;85.30;44.22;;;11.20;99.90;;;;;;5051081;28;20554;-56
2022/03/29 00:36:02;;;;;;;86.38;44.95;;;11.10;99.90;;;;;;5050926;28;20107;-56
2022/03/29 00:38:28;;;;;;;80.20;44.53;;;11.10;99.90;;;;;;5050999;28;20127;-56
2022/03/29 00:40:54;;;;;;;84.07;42.53;;;11.10;99.90;;;;;;5050532;28;20459;-58
2022/03/29 00:43:20;;;;;;;84.32;44.63;;;11.10;99.90;;;;;;5050558;28;20046;-56
2022/03/29 00:45:49;;;;;;;89.25;43.33;;;11.10;99.90;;;;;;5050241;28;20111;-56
2022/03/29 00:48:14;;;;;;;82.95;44.35;;;11.20;99.90;;;;;;5051756;28;20078;-57
2022/03/29 00:50:42;;;;;;;82.78;44.28;;;11.20;99.90;;;;;;5050968;28;20025;-56
2022/03/29 00:53:09;;;;;;;80.80;41.72;;;11.20;99.90;;;;;;5051047;28;20097;-57
2022/03/29 00:55:35;;;;;;;79.40;43.88;;;11.20;99.90;;;;;;5050902;28;20471;-56
2022/03/29 00:58:03;;;;;;;85.15;44.35;;;11.10;99.90;;;;;;5051262;28;20463;-56
2022/03/29 01:00:30;;;;;;;83.88;43.65;;;11.20;99.90;;;;;;5050974;28;20024;-56
2022/03/29 01:02:56;;;;;;;84.57;44.85;;;11.30;99.90;;;;;;5067995;28;20363;-56
2022/03/29 01:05:22;;;;;;;89.18;43.35;;;11.30;99.90;;;;;;5051649;28;20078;-56
2022/03/29 01:07:48;;;;;;;82.78;43.70;;;11.20;99.90;;;;;;5051238;28;20029;-55
2022/03/29 01:10:14;;;;;;;89.22;45.70;;;11.10;99.90;;;;;;5051580;28;20025;-56
2022/03/29 01:12:39;;;;;;;78.20;43.03;;;11.10;99.90;;;;;;5050712;28;20033;-55
2022/03/29 01:15:08;;;;;;;80.80;43.15;;;11.10;99.90;;;;;;5052138;28;20037;-55
2022/03/29 01:17:41;;;;;;;79.90;42.55;;;11.10;99.90;;;;;;5051503;28;20033;-56
2022/03/29 01:20:24;;;;;;;76.13;43.15;;;11.20;99.90;;;;;;5052629;28;20021;-56
2022/03/29 01:22:52;;;;;;;80.13;43.17;;;11.10;99.90;;;;;;5051460;28;20017;-55
2022/03/29 01:25:19;;;;;;;82.95;42.75;;;11.00;99.90;;;;;;5050520;28;20044;-55
2022/03/29 01:27:47;;;;;;;79.97;42.70;;;10.90;99.90;;;;;;5050912;28;20051;-55
2022/03/29 01:30:14;;;;;;;81.65;43.80;;;10.90;99.90;;;;;;5050720;28;20170;-55
2022/03/29 01:32:43;;;;;;;80.93;44.10;;;10.80;99.90;;;;;;5050554;28;20020;-55
2022/03/29 01:35:09;;;;;;;85.93;43.53;;;10.80;99.90;;;;;;5053832;28;20031;-56
2022/03/29 01:37:35;;;;;;;79.38;42.75;;;10.90;99.90;;;;;;5070390;28;20509;-56
2022/03/29 01:40:23;;;;;;;78.63;43.47;;;11.00;99.90;;;;;;5070490;28;20032;-56
2022/03/29 01:42:55;;;;;;;78.10;41.78;;;10.90;99.90;;;;;;5070373;28;20500;-56
2022/03/29 01:45:22;;;;;;;83.47;43.33;;;10.80;99.90;;;;;;5070260;28;20025;-56
2022/03/29 01:47:48;;;;;;;76.68;41.70;;;10.70;99.90;;;;;;5070039;28;20097;-56
2022/03/29 01:50:14;;;;;;;76.45;43.70;;;10.70;99.90;;;;;;5070301;28;20021;-56
2022/03/29 01:52:42;;;;;;;75.30;42.08;;;10.70;99.90;;;;;;5069911;28;20023;-55
2022/03/29 01:55:09;;;;;;;78.95;42.75;;;10.70;99.90;;;;;;5070075;28;20404;-56
2022/03/29 01:57:36;;;;;;;84.82;43.38;;;10.70;99.90;;;;;;5072973;28;20143;-55
2022/03/29 02:02:46;;;;;;;76.50;42.45;;;10.60;99.90;;;;;;5074903;28;20067;-56
2022/03/29 02:05:12;;;;;;;77.78;42.95;;;10.50;99.90;;;;;;5073327;28;20052;-56
2022/03/29 02:07:38;;;;;;;79.15;42.45;;;10.50;99.90;;;;;;5074317;28;20519;-56
2022/03/29 02:10:05;;;;;;;79.30;41.97;;;10.50;99.90;;;;;;5072946;28;20119;-56
2022/03/29 02:12:33;;;;;;;75.07;42.20;;;10.50;99.90;;;;;;5074541;28;20432;-56
2022/03/29 02:14:58;;;;;;;75.53;41.38;;;10.50;99.90;;;;;;5073651;28;20029;-56
2022/03/29 02:17:24;;;;;;;76.97;42.25;;;10.50;99.90;;;;;;5073353;28;20032;-56
2022/03/29 02:19:50;;;;;;;74.60;41.92;;;10.50;99.90;;;;;;5089386;28;20043;-56
2022/03/29 02:22:15;;;;;;;75.90;42.22;;;10.50;99.90;;;;;;5073215;28;20028;-55
2022/03/29 02:24:42;;;;;;;73.90;40.35;;;10.40;99.90;;;;;;5073636;28;20464;-56
2022/03/29 02:27:08;;;;;;;75.40;42.42;;;10.40;99.90;;;;;;5073396;28;20489;-56
2022/03/29 02:29:34;;;;;;;75.68;43.03;;;10.40;99.90;;;;;;5073652;28;20035;-56
2022/03/29 02:31:59;;;;;;;79.97;41.33;;;10.40;99.90;;;;;;5073290;28;20033;-56
2022/03/29 02:34:25;;;;;;;70.97;41.35;;;10.50;99.90;;;;;;5073029;28;20021;-56
2022/03/29 02:36:51;;;;;;;73.95;41.97;;;10.50;99.90;;;;;;5073228;28;20020;-56
2022/03/29 02:39:16;;;;;;;76.05;41.33;;;10.60;99.90;;;;;;5073377;28;20102;-56
2022/03/29 02:41:42;;;;;;;74.70;41.47;;;10.60;99.90;;;;;;5073791;28;20149;-54
2022/03/29 02:44:08;;;;;;;76.97;40.40;;;10.60;99.90;;;;;;5073915;28;20549;-56
2022/03/29 02:46:34;;;;;;;72.95;40.65;;;10.60;99.90;;;;;;5074599;28;20025;-56
2022/03/29 02:49:00;;;;;;;75.90;40.55;;;10.60;99.90;;;;;;5073945;28;20375;-55
2022/03/29 02:51:25;;;;;;;75.43;39.65;;;10.70;99.90;;;;;;5074168;28;20067;-56
2022/03/29 02:53:51;;;;;;;69.60;38.88;;;10.60;99.90;;;;;;5073410;28;20501;-56
2022/03/29 02:56:16;;;;;;;71.60;38.85;;;10.60;99.90;;;;;;5072518;28;20031;-57
2022/03/29 02:58:42;;;;;;;70.22;39.83;;;10.60;99.90;;;;;;5073247;28;20473;-56
2022/03/29 03:01:08;;;;;;;74.40;40.08;;;10.60;99.90;;;;;;5072719;28;20066;-56
2022/03/29 03:03:33;;;;;;;69.70;39.83;;;10.60;99.90;;;;;;5072983;28;20442;-56
2022/03/29 03:05:59;;;;;;;66.10;39.00;;;10.70;99.90;;;;;;5073086;28;20091;-55
2022/03/29 03:08:24;;;;;;;70.82;39.90;;;10.70;99.90;;;;;;5072417;28;20474;-56
2022/03/29 03:10:50;;;;;;;70.65;38.08;;;10.70;99.90;;;;;;5072767;28;20473;-56
2022/03/29 03:13:16;;;;;;;64.85;36.80;;;10.80;99.90;;;;;;5072304;28;20020;-56
2022/03/29 03:15:42;;;;;;;66.45;36.97;;;10.80;99.90;;;;;;5073238;28;20024;-56
2022/03/29 03:18:09;;;;;;;71.80;38.85;;;10.80;99.90;;;;;;5073391;28;20176;-56
2022/03/29 03:20:35;;;;;;;71.03;38.47;;;10.80;99.90;;;;;;5072489;28;20034;-56
2022/03/29 03:23:01;;;;;;;77.95;41.15;;;11.00;99.90;;;;;;5072461;28;20040;-56
2022/03/29 03:25:27;;;;;;;76.53;41.08;;;11.20;99.90;;;;;;5072513;28;20147;-56
2022/03/29 03:27:53;;;;;;;75.18;40.78;;;11.10;99.90;;;;;;5072756;28;20510;-56
2022/03/29 03:30:19;;;;;;;71.43;38.53;;;10.90;99.90;;;;;;5072522;28;20027;-56
2022/03/29 03:32:45;;;;;;;75.95;38.85;;;10.70;99.90;;;;;;5072872;28;20043;-57
2022/03/29 03:35:11;;;;;;;68.60;38.42;;;10.70;99.90;;;;;;5073430;28;20021;-56
2022/03/29 03:37:37;;;;;;;71.68;38.28;;;10.70;99.90;;;;;;5072171;28;20056;-57
2022/03/29 03:40:04;;;;;;;71.38;38.05;;;10.70;99.90;;;;;;5072991;28;20028;-56
2022/03/29 03:42:30;;;;;;;72.32;39.75;;;10.80;99.90;;;;;;5073224;28;20031;-57
2022/03/29 03:44:57;;;;;;;71.55;38.15;;;10.80;99.90;;;;;;5071979;28;20033;-56
2022/03/29 03:47:23;;;;;;;76.32;38.05;;;10.70;99.90;;;;;;5072351;28;20077;-56
2022/03/29 03:49:48;;;;;;;66.72;37.50;;;10.70;99.90;;;;;;5072363;28;20028;-57
2022/03/29 03:52:14;;;;;;;67.85;36.30;;;10.60;99.90;;;;;;5071850;28;20165;-57
2022/03/29 03:54:40;;;;;;;70.63;38.28;;;10.60;99.90;;;;;;5071985;28;20081;-58
2022/03/29 03:57:05;;;;;;;76.20;38.15;;;10.60;99.90;;;;;;5072331;28;20025;-57
2022/03/29 03:59:32;;;;;;;68.70;36.78;;;10.60;99.90;;;;;;5072547;28;20023;-57
2022/03/29 04:01:58;;;;;;;74.40;36.28;;;10.60;99.90;;;;;;5073194;28;20529;-57
2022/03/29 04:04:24;;;;;;;69.47;37.33;;;10.60;99.90;;;;;;5073036;28;20021;-56
2022/03/29 04:06:51;;;;;;;72.93;37.25;;;10.70;99.90;;;;;;5071874;28;20028;-56
2022/03/29 04:09:17;;;;;;;66.75;35.72;;;10.70;99.90;;;;;;5072121;28;20024;-56
2022/03/29 04:11:43;;;;;;;62.95;34.70;;;10.70;99.90;;;;;;5072382;28;20062;-57
2022/03/29 04:14:09;;;;;;;74.35;36.17;;;10.80;99.90;;;;;;5072150;28;20060;-57
2022/03/29 04:16:35;;;;;;;68.90;35.65;;;10.80;99.90;;;;;;5071786;28;20063;-57
2022/03/29 04:19:01;;;;;;;66.72;35.88;;;10.80;99.90;;;;;;5071431;28;20025;-57
2022/03/29 04:21:28;;;;;;;70.97;34.40;;;10.80;99.90;;;;;;5071141;28;20108;-57
2022/03/29 04:23:53;;;;;;;67.10;33.85;;;10.80;99.90;;;;;;5071702;28;20028;-57
2022/03/29 04:26:19;;;;;;;62.85;34.08;;;10.70;99.90;;;;;;5070923;28;20025;-57
2022/03/29 04:28:45;;;;;;;70.28;33.95;;;10.60;99.90;;;;;;5071140;28;20028;-56
2022/03/29 04:31:11;;;;;;;64.88;34.42;;;10.60;99.90;;;;;;5070939;28;20024;-56
2022/03/29 04:33:37;;;;;;;61.63;32.55;;;10.60;99.90;;;;;;5071019;28;20069;-56
2022/03/29 04:36:04;;;;;;;62.03;34.33;;;10.70;99.90;;;;;;5071604;28;20027;-57
2022/03/29 04:38:30;;;;;;;63.90;34.47;;;10.80;99.90;;;;;;5071087;28;20125;-57
2022/03/29 04:40:55;;;;;;;71.70;35.97;;;10.90;99.90;;;;;;5071959;28;20375;-57
2022/03/29 04:43:21;;;;;;;66.45;34.05;;;11.00;99.90;;;;;;5071445;28;20039;-57
2022/03/29 04:45:47;;;;;;;70.95;35.28;;;10.90;99.90;;;;;;5071195;28;20035;-57
2022/03/29 04:48:13;;;;;;;64.03;33.22;;;10.70;99.90;;;;;;5070939;28;20020;-57
2022/03/29 04:50:40;;;;;;;67.80;34.63;;;10.60;99.90;;;;;;5070620;28;20139;-57
2022/03/29 04:53:06;;;;;;;62.75;33.10;;;10.60;99.90;;;;;;5070588;28;20020;-56
2022/03/29 04:55:33;;;;;;;65.28;33.45;;;10.60;99.90;;;;;;5069698;28;20540;-57
2022/03/29 04:58:00;;;;;;;64.18;33.38;;;10.60;99.90;;;;;;5070786;28;20078;-57
2022/03/29 05:00:26;;;;;;;70.75;35.15;;;10.60;99.90;;;;;;5070845;28;20077;-57
2022/03/29 05:02:52;;;;;;;73.88;33.10;;;10.50;99.90;;;;;;5070907;28;20541;-56
2022/03/29 05:05:19;;;;;;;64.10;33.10;;;10.50;99.90;;;;;;5071317;28;20099;-56
2022/03/29 05:07:46;;;;;;;65.60;32.65;;;10.60;99.90;;;;;;5071549;28;20040;-56
2022/03/29 05:10:12;;;;;;;63.33;32.17;;;10.60;99.90;;;;;;5070421;28;20107;-56
2022/03/29 05:12:51;;;;;;;70.95;32.45;;;10.60;99.90;;;;;;5071195;28;20032;-57
2022/03/29 05:15:20;;;;;;;64.07;32.10;;;10.50;99.90;;;;;;5070772;28;20050;-57
2022/03/29 05:17:46;;;;;;;68.40;32.33;;;10.50;99.90;;;;;;5070543;28;20029;-57
2022/03/29 05:20:14;;;;;;;64.22;32.25;;;10.50;99.90;;;;;;5070659;28;20078;-56
2022/03/29 05:23:00;;;;;;;62.88;30.40;;;10.50;99.90;;;;;;5070410;28;20017;-56
2022/03/29 05:25:26;;;;;;;67.28;33.10;;;10.50;99.90;;;;;;5052753;28;20420;-56
2022/03/29 05:27:53;;;;;;;68.90;32.08;;;10.40;99.90;;;;;;5071321;28;20369;-56
2022/03/29 05:30:20;;;;;;;64.28;33.35;;;10.40;99.90;;;;;;5071112;28;20036;-56
2022/03/29 05:32:47;;;;;;;68.07;32.20;;;10.50;99.90;;;;;;5073549;28;20059;-56
2022/03/29 05:35:13;;;;;;;62.28;32.08;;;10.50;99.90;;;;;;5074886;28;20056;-55
2022/03/29 05:37:41;;;;;;;63.17;30.48;;;10.60;99.90;;;;;;5074010;28;20048;-55
2022/03/29 05:40:08;;;;;;;65.90;31.05;;;10.50;99.90;;;;;;5074793;28;20067;-56
2022/03/29 05:42:44;;;;;;;63.40;30.58;;;10.40;99.90;;;;;;5074084;28;20025;-56
2022/03/29 05:45:11;;;;;;;62.58;30.73;;;10.40;99.90;;;;;;5074899;28;20025;-56
2022/03/29 05:50:23;;;;;;;65.18;30.33;;;10.30;99.90;;;;;;5075025;28;20554;-56
2022/03/29 05:52:48;;;;;;;56.08;29.83;;;10.30;99.90;;;;;;5062907;28;20509;-56
2022/03/29 05:55:15;;;;;;;53.10;29.63;;;10.30;99.90;;;;;;5051780;28;20036;-56
2022/03/29 05:57:40;;;;;;;64.40;28.65;;;10.40;99.90;;;;;;5043974;28;20034;-57
2022/03/29 06:00:10;;;;;;;64.20;30.52;;;10.40;99.90;;;;;;5048149;28;20207;-56
2022/03/29 06:02:36;;;;;;;56.17;29.00;;;10.40;99.90;;;;;;5047479;28;20064;-56
2022/03/29 06:05:02;;;;;;;66.18;28.35;;;10.50;99.90;;;;;;5049459;28;20037;-56
2022/03/29 06:07:28;;;;;;;67.47;31.88;;;10.60;99.90;;;;;;5044968;28;20025;-56
2022/03/29 06:09:54;;;;;;;58.30;28.30;;;10.70;99.90;;;;;;5045552;28;20032;-56
2022/03/29 06:12:21;;;;;;;59.30;27.20;;;10.80;99.90;;;;;;5048238;28;20035;-56
2022/03/29 06:14:46;;;;;;;57.75;27.90;;;10.70;99.90;;;;;;5064645;28;20021;-57
2022/03/29 06:17:12;;;;;;;65.57;26.30;;;10.70;99.90;;;;;;5048456;28;20683;-55
2022/03/29 06:19:38;;;;;;;79.35;29.95;;;10.70;99.90;;;;;;5047807;28;20128;-55
2022/03/29 06:22:04;;;;;;;59.03;27.90;;;10.70;99.90;;;;;;5049035;28;20083;-56
2022/03/29 06:24:31;;;;;;;69.75;28.50;;;10.60;99.90;;;;;;5040600;28;20041;-55
2022/03/29 06:26:58;;;;;;;59.25;28.00;;;10.70;99.90;;;;;;5043879;28;20041;-55
2022/03/29 06:29:23;;;;;;;59.22;27.10;;;10.80;99.90;;;;;;5047023;28;20028;-55
2022/03/29 06:31:50;;;;;;;65.00;29.17;;;11.00;99.90;;;;;;5040985;28;20040;-55
2022/03/29 06:34:16;;;;;;;58.15;26.63;;;11.10;99.90;;;;;;5043216;28;20037;-55
2022/03/29 06:36:42;;;;;;;51.75;26.33;;;11.10;99.90;;;;;;5043990;28;20032;-54
2022/03/29 06:39:10;;;;;;;57.58;27.80;;;11.10;99.90;;;;;;5047043;28;20040;-55
2022/03/29 06:41:36;;;;;;;51.97;25.35;;;11.30;99.90;;;;;;5043163;28;20029;-54
2022/03/29 06:44:02;;;;;;;57.58;25.42;;;11.30;99.90;;;;;;5044107;28;20021;-55
2022/03/29 06:46:28;;;;;;;53.58;25.77;;;11.40;99.90;;;;;;5038304;28;20035;-55
2022/03/29 06:48:56;;;;;;;51.00;26.55;;;11.70;99.90;;;;;;5040776;28;20068;-54
2022/03/29 06:51:23;;;;;;;55.97;25.83;;;11.70;99.90;;;;;;5040919;28;20202;-54
2022/03/29 06:53:49;;;;;;;56.25;26.85;;;11.80;99.90;;;;;;5037168;28;20052;-55
2022/03/29 06:56:16;;;;;;;61.15;26.52;;;11.70;99.90;;;;;;5040953;28;20160;-54
2022/03/29 06:58:42;;;;;;;57.33;25.25;;;11.80;99.90;;;;;;5033151;28;20060;-55
2022/03/29 07:01:08;;;;;;;55.58;27.02;;;11.80;99.90;;;;;;5035516;28;20036;-55
2022/03/29 07:03:35;;;;;;;53.92;25.17;;;11.90;99.90;;;;;;5036713;28;20040;-55
2022/03/29 07:06:03;;;;;;;54.20;24.33;;;12.00;99.90;;;;;;5032802;28;20026;-55
2022/03/29 07:08:30;;;;;;;47.17;23.75;;;11.90;99.90;;;;;;5033846;28;20035;-54
2022/03/29 07:13:40;;;;;;;46.75;24.23;;;12.00;99.90;;;;;;5033471;28;20380;-55
2022/03/29 07:16:07;;;;;;;50.90;23.63;;;12.30;99.90;;;;;;5033655;28;20481;-55
2022/03/29 07:18:33;;;;;;;53.80;23.95;;;12.40;99.90;;;;;;5051105;28;20039;-56
2022/03/29 07:20:59;;;;;;;58.33;26.45;;;12.40;99.90;;;;;;5035174;28;20029;-56
2022/03/29 07:23:25;;;;;;;63.20;25.02;;;12.50;99.90;;;;;;5029446;28;20395;-56
2022/03/29 07:25:51;;;;;;;47.58;23.85;;;12.60;99.90;;;;;;5034321;28;20106;-56
2022/03/29 07:28:17;;;;;;;51.35;24.27;;;13.00;99.90;;;;;;5029795;28;20354;-56
2022/03/29 07:30:43;;;;;;;45.63;23.20;;;13.20;99.90;;;;;;5026746;28;20040;-56
2022/03/29 07:33:11;;;;;;;46.50;25.13;;;13.10;99.90;;;;;;5035346;28;20025;-56
2022/03/29 07:35:37;;;;;;;47.03;24.90;;;13.00;99.90;;;;;;5037780;28;20028;-57
2022/03/29 07:38:07;;;;;;;57.90;25.58;;;13.20;99.90;;;;;;5025605;28;20150;-56
2022/03/29 07:40:34;;;;;;;55.25;25.00;;;13.30;99.90;;;;;;5037567;28;20634;-56
2022/03/29 07:43:00;;;;;;;49.50;25.10;;;13.40;99.90;;;;;;5039152;28;20074;-57
2022/03/29 07:45:27;;;;;;;48.10;24.77;;;13.40;99.90;;;;;;5032631;28;20615;-56
2022/03/29 07:47:56;;;;;;;55.50;26.15;;;12.90;99.90;;;;;;5037115;28;20032;-57
2022/03/29 07:50:24;;;;;;;49.38;25.45;;;12.70;99.90;;;;;;5038931;28;20449;-57
2022/03/29 07:52:50;;;;;;;50.03;25.27;;;12.80;99.90;;;;;;5035514;28;20033;-58
2022/03/29 07:55:17;;;;;;;44.40;25.50;;;12.80;99.90;;;;;;5041678;28;20025;-57
2022/03/29 07:57:43;;;;;;;57.40;25.20;;;13.00;99.90;;;;;;5042401;28;20171;-56
2022/03/29 08:02:58;;;;;;;47.03;25.20;;;13.50;99.90;;;;;;5036661;28;20505;-56
2022/03/29 08:05:23;;;;;;;49.45;26.40;;;13.80;99.90;;;;;;5040893;28;20025;-57
2022/03/29 08:07:49;;;;;;;50.60;25.55;;;13.90;99.90;;;;;;5037369;28;20419;-57
2022/03/29 08:10:15;;;;;;;53.88;26.95;;;14.10;99.90;;;;;;5039431;28;20429;-56
2022/03/29 08:12:41;;;;;;;46.33;24.88;;;14.40;99.90;;;;;;5035846;28;20033;-57
2022/03/29 08:15:08;;;;;;;62.47;26.23;;;14.70;99.90;;;;;;5041603;28;20044;-56
2022/03/29 08:17:34;;;;;;;57.47;26.70;;;14.90;99.90;;;;;;5039423;28;20025;-56
2022/03/29 08:20:00;;;;;;;57.20;26.52;;;15.00;99.90;;;;;;5039383;28;20482;-56
2022/03/29 08:22:26;;;;;;;56.63;26.30;;;14.90;99.90;;;;;;5035610;28;20053;-56
2022/03/29 08:24:52;;;;;;;55.33;27.35;;;15.00;99.90;;;;;;5039102;28;20475;-57
2022/03/29 08:27:17;;;;;;;50.95;26.33;;;15.20;99.90;;;;;;5036595;28;20447;-57
2022/03/29 08:29:43;;;;;;;55.60;26.65;;;15.10;99.90;;;;;;5036507;28;20568;-56
2022/03/29 08:32:09;;;;;;;53.45;26.70;;;15.20;99.90;;;;;;5034175;28;20036;-57
2022/03/29 08:34:35;;;;;;;52.33;26.95;;;15.50;99.90;;;;;;5031092;28;20067;-56
2022/03/29 08:37:00;;;;;;;47.38;26.80;;;15.40;99.90;;;;;;5038925;28;20017;-57
2022/03/29 08:39:26;;;;;;;49.35;26.70;;;15.30;99.90;;;;;;5036469;28;20049;-56
2022/03/29 08:42:10;;;;;;;46.78;25.80;;;15.70;99.90;;;;;;5035508;28;20530;-56
2022/03/29 08:44:38;;;;;;;44.78;26.67;;;15.90;99.90;;;;;;5034867;28;20532;-57
2022/03/29 08:47:07;;;;;;;42.28;26.20;;;15.80;99.90;;;;;;5037813;28;20099;-56
2022/03/29 08:49:34;;;;;;;48.72;27.25;;;15.80;99.90;;;;;;5041878;28;20135;-56
2022/03/29 08:52:00;;;;;;;50.95;26.05;;;15.60;99.90;;;;;;5061881;28;20449;-56
2022/03/29 08:54:26;;;;;;;49.10;25.88;;;15.60;99.90;;;;;;5044907;28;20028;-57
2022/03/29 08:56:51;;;;;;;54.92;26.88;;;15.70;99.90;;;;;;5032333;28;20028;-56
2022/03/29 08:59:18;;;;;;;55.60;27.33;;;16.00;99.90;;;;;;5037550;28;20057;-57
2022/03/29 09:01:44;;;;;;;55.33;27.00;;;16.00;99.90;;;;;;5036109;28;20037;-58
2022/03/29 09:04:21;;;;;;;58.17;27.33;;;15.90;99.90;;;;;;5039162;28;20083;-57
2022/03/29 09:06:50;;;;;;;54.50;28.40;;;16.20;99.90;;;;;;5044432;28;20071;-57
2022/03/29 09:09:23;;;;;;;51.72;27.33;;;16.50;99.90;;;;;;5030775;28;20021;-57
2022/03/29 09:11:50;;;;;;;49.13;25.85;;;16.50;99.90;;;;;;5028298;28;20036;-57
2022/03/29 09:14:18;;;;;;;51.45;26.30;;;16.10;99.90;;;;;;5027740;28;20116;-57
2022/03/29 09:16:47;;;;;;;44.92;24.98;;;16.10;99.90;;;;;;5034073;28;20026;-56
2022/03/29 09:19:13;;;;;;;52.35;25.75;;;15.90;99.90;;;;;;5029534;28;20083;-58
2022/03/29 09:21:43;;;;;;;46.53;25.27;;;15.80;99.90;;;;;;5037471;28;20569;-57
2022/03/29 09:24:15;;;;;;;52.47;26.05;;;16.00;99.90;;;;;;5035309;28;20025;-57
2022/03/29 09:26:49;;;;;;;42.65;24.35;;;16.10;99.90;;;;;;5034637;28;20060;-57
2022/03/29 09:29:20;;;;;;;48.15;25.67;;;16.30;99.90;;;;;;5031435;28;20037;-57
2022/03/29 09:31:58;;;;;;;48.08;25.42;;;16.40;99.90;;;;;;5033423;28;20256;-56
2022/03/29 09:34:24;;;;;;;49.10;26.40;;;16.00;99.90;;;;;;5034602;28;20022;-57
2022/03/29 09:36:52;;;;;;;49.28;25.15;;;15.90;99.90;;;;;;5034634;28;20033;-57
2022/03/29 09:39:37;;;;;;;48.13;25.88;;;15.90;99.90;;;;;;5037696;28;20050;-57
2022/03/29 09:42:14;;;;;;;43.88;24.63;;;15.90;99.90;;;;;;5034871;28;20048;-57
2022/03/29 09:44:53;;;;;;;51.00;26.00;;;16.10;99.90;;;;;;5037272;28;21005;-56
2022/03/29 09:47:20;;;;;;;51.33;25.95;;;16.40;99.90;;;;;;5034521;28;20029;-57
2022/03/29 09:50:09;;;;;;;44.72;25.40;;;16.20;99.90;;;;;;5023334;28;20029;-57
2022/03/29 09:52:40;;;;;;;51.75;26.92;;;16.20;99.90;;;;;;5029066;28;20044;-57
2022/03/29 09:55:17;;;;;;;48.35;25.00;;;16.10;99.90;;;;;;5036343;28;20029;-58
2022/03/29 09:57:50;;;;;;;52.22;25.25;;;16.20;99.90;;;;;;5032651;28;20155;-57
2022/03/29 10:00:40;;;;;;;46.47;25.10;;;15.90;99.90;;;;;;5036159;28;20025;-57
2022/03/29 10:03:09;;;;;;;53.40;25.77;;;15.50;99.90;;;;;;5033034;28;20036;-57
2022/03/29 10:05:39;;;;;;;51.33;25.60;;;15.70;99.90;;;;;;5036240;28;20342;-57
2022/03/29 10:10:55;;;;;;;47.72;25.48;;;16.00;99.90;;;;;;5035516;28;20040;-58
2022/03/29 10:13:24;;;;;;;47.63;26.20;;;16.00;99.90;;;;;;5030338;28;20225;-57
2022/03/29 10:15:51;;;;;;;51.55;26.77;;;16.30;99.90;;;;;;5040432;28;20021;-57
2022/03/29 10:18:18;;;;;;;45.25;27.00;;;16.50;99.90;;;;;;5048266;28;20025;-57
2022/03/29 10:20:44;;;;;;;50.85;27.52;;;17.00;99.90;;;;;;5038655;28;20439;-58
2022/03/29 10:23:14;;;;;;;46.83;26.75;;;16.70;99.90;;;;;;5035509;28;20612;-57
2022/03/29 10:25:41;;;;;;;46.72;26.73;;;16.60;99.90;;;;;;5033241;28;20062;-58
2022/03/29 10:28:08;;;;;;;54.03;26.67;;;16.80;99.90;;;;;;5036398;28;20016;-57
2022/03/29 10:30:41;;;;;;;53.20;28.83;;;16.80;99.90;;;;;;5037668;28;20478;-58
2022/03/29 10:33:24;;;;;;;50.17;28.20;;;16.80;99.90;;;;;;5050752;28;20037;-57
2022/03/29 10:35:58;;;;;;;54.40;28.98;;;16.90;99.90;;;;;;5037852;28;20064;-57
2022/03/29 10:38:53;;;;;;;58.40;29.48;;;17.00;99.90;;;;;;5034036;28;20246;-57
2022/03/29 10:41:28;;;;;;;58.72;29.13;;;17.40;99.90;;;;;;5034708;28;20423;-58
2022/03/29 10:44:04;;;;;;;49.30;29.02;;;17.10;99.90;;;;;;5030829;28;20036;-57
2022/03/29 10:46:47;;;;;;;64.57;30.67;;;17.10;99.90;;;;;;5036795;28;20071;-57
2022/03/29 10:49:17;;;;;;;61.78;30.63;;;17.10;99.90;;;;;;5035414;28;20104;-57
2022/03/29 10:51:43;;;;;;;65.03;29.70;;;17.00;99.90;;;;;;5032391;28;20029;-57
2022/03/29 10:54:25;;;;;;;55.28;29.73;;;17.40;99.90;;;;;;5037034;28;20072;-57
2022/03/29 10:56:57;;;;;;;53.38;30.17;;;18.20;99.90;;;;;;5035356;28;20462;-57
2022/03/29 10:59:24;;;;;;;55.88;30.85;;;18.50;99.90;;;;;;5057076;28;20025;-57
2022/03/29 11:02:08;;;;;;;67.82;31.73;;;18.30;99.90;;;;;;5037847;28;20029;-57
2022/03/29 11:04:35;;;;;;;56.47;31.23;;;18.30;99.90;;;;;;5039024;28;20086;-58
2022/03/29 11:07:06;;;;;;;59.78;30.58;;;18.30;99.90;;;;;;5042685;28;20036;-59
2022/03/29 11:09:33;;;;;;;54.80;30.38;;;18.50;99.90;;;;;;5039364;28;20104;-58
2022/03/29 11:11:59;;;;;;;55.30;30.60;;;19.20;99.90;;;;;;5043113;28;20040;-58
2022/03/29 11:14:28;;;;;;;51.28;28.67;;;19.20;98.40;;;;;;5041922;28;20025;-58
2022/03/29 11:16:54;;;;;;;46.15;29.05;;;19.20;98.60;;;;;;5037470;28;20031;-58
2022/03/29 11:19:46;;;;;;;47.15;29.75;;;19.70;97.80;;;;;;5037576;28;20091;-58
2022/03/29 11:22:31;;;;;;;48.53;30.13;;;19.40;97.00;;;;;;5038828;28;20033;-62
2022/03/29 11:25:13;;;;;;;51.67;29.63;;;18.70;98.20;;;;;;5033522;28;20041;-58
2022/03/29 11:27:39;;;;;;;48.78;29.15;;;18.80;98.10;;;;;;5038179;28;20037;-58
2022/03/29 11:30:09;;;;;;;45.28;29.30;;;19.00;97.70;;;;;;5040257;28;20133;-58
2022/03/29 11:32:39;;;;;;;45.70;27.95;;;19.10;96.60;;;;;;5039608;28;20384;-58
2022/03/29 11:35:11;;;;;;;51.17;28.70;;;19.10;96.40;;;;;;5038796;28;20025;-58
2022/03/29 11:37:43;;;;;;;47.65;28.08;;;19.30;95.90;;;;;;5033859;28;20107;-58
2022/03/29 11:40:15;;;;;;;50.78;29.30;;;19.50;96.10;;;;;;5040995;28;20470;-57
2022/03/29 11:42:59;;;;;;;47.50;28.85;;;19.60;95.60;;;;;;5041294;28;20056;-58
2022/03/29 11:45:28;;;;;;;46.95;29.42;;;19.40;96.10;;;;;;5036330;28;20264;-58
2022/03/29 11:48:11;;;;;;;52.50;29.63;;;19.70;95.70;;;;;;5045368;28;20456;-57
2022/03/29 11:50:44;;;;;;;45.72;27.60;;;20.30;95.10;;;;;;5031444;28;20028;-58
2022/03/29 11:53:30;;;;;;;47.17;28.20;;;20.40;94.40;;;;;;5035482;28;20036;-59
2022/03/29 11:56:09;;;;;;;49.38;29.50;;;20.70;94.20;;;;;;5050966;28;20509;-59
2022/03/29 11:58:49;;;;;;;46.75;28.77;;;20.80;92.90;;;;;;5035155;28;20461;-58
2022/03/29 12:01:18;;;;;;;48.72;28.40;;;20.50;93.30;;;;;;5038596;28;20120;-58
2022/03/29 12:03:46;;;;;;;44.25;27.92;;;20.30;93.70;;;;;;5036313;28;20017;-58
2022/03/29 12:06:14;;;;;;;45.40;27.02;;;20.40;93.50;;;;;;5039170;28;20084;-58
2022/03/29 12:08:55;;;;;;;46.35;28.73;;;20.80;93.60;;;;;;5039211;28;20056;-59
2022/03/29 12:11:30;;;;;;;43.25;27.70;;;21.70;92.50;;;;;;5038239;28;20027;-59
2022/03/29 12:14:04;;;;;;;44.50;28.23;;;21.50;91.80;;;;;;5038664;28;20449;-59
2022/03/29 12:16:31;;;;;;;39.95;26.48;;;21.80;91.50;;;;;;5040078;28;20098;-58
2022/03/29 12:18:57;;;;;;;39.30;26.17;;;21.80;90.60;;;;;;5039412;28;20029;-60
2022/03/29 12:21:24;;;;;;;43.70;27.83;;;21.70;91.10;;;;;;5035688;28;20029;-58
2022/03/29 12:23:59;;;;;;;39.45;25.55;;;21.50;91.50;;;;;;5049851;28;20122;-59
2022/03/29 12:26:25;;;;;;;42.33;27.35;;;20.90;91.90;;;;;;5040527;28;20062;-58
2022/03/29 12:28:51;;;;;;;49.85;28.98;;;20.80;91.70;;;;;;5038482;28;20416;-58
2022/03/29 12:31:18;;;;;;;40.28;26.50;;;20.30;92.00;;;;;;5039816;28;20276;-58
2022/03/29 12:33:45;;;;;;;41.40;27.17;;;19.90;92.70;;;;;;5038141;28;20576;-58
2022/03/29 12:36:15;;;;;;;46.53;28.00;;;19.30;93.90;;;;;;5041260;28;20032;-58
2022/03/29 12:38:42;;;;;;;47.05;28.63;;;18.80;95.30;;;;;;5037567;28;20104;-58
2022/03/29 12:41:11;;;;;;;50.30;29.35;;;18.70;95.80;;;;;;5026400;28;20056;-58
2022/03/29 12:43:36;;;;;;;47.25;26.88;;;18.70;95.40;;;;;;5035834;28;20051;-58
2022/03/29 12:46:09;;;;;;;58.17;27.60;;;18.70;95.50;;;;;;5038440;28;20137;-57
2022/03/29 12:48:38;;;;;;;;;;;18.30;96.00;;;;;;5033831;28;20064;-58